createdAt,value
2019-04-04T00:01:18.420Z,98143.42
2019-04-04T00:04:23.660Z,98145.64
2019-04-04T00:07:28.993Z,98119.60
2019-04-04T00:10:35.278Z,98118.13
2019-04-04T00:13:44.237Z,98116.03
2019-04-04T00:16:49.372Z,98129.83
2019-04-04T00:19:54.695Z,98114.77
2019-04-04T00:22:59.856Z,98108.30
2019-04-04T00:26:05.038Z,98099.14
2019-04-04T00:29:10.157Z,98101.86
2019-04-04T00:32:15.372Z,98090.23
2019-04-04T00:35:20.542Z,98069.36
2019-04-04T00:38:25.745Z,98073.70
2019-04-04T00:41:30.924Z,98066.63
2019-04-04T00:44:36.059Z,98059.05
2019-04-04T00:47:41.676Z,98078.08
2019-04-04T00:50:48.038Z,98076.78
2019-04-04T00:53:53.506Z,98051.38
2019-04-04T00:56:58.824Z,98039.22
2019-04-04T01:00:04.456Z,98038.59
2019-04-04T01:03:09.830Z,98056.19
2019-04-04T01:06:15.011Z,98051.08
2019-04-04T01:09:20.372Z,98048.47
2019-04-04T01:12:25.732Z,98050.87
2019-04-04T01:15:31.770Z,98063.19
2019-04-04T01:18:37.585Z,98061.77
2019-04-04T01:21:43.048Z,98052.91
2019-04-04T01:24:49.365Z,98055.72
2019-04-04T01:27:54.670Z,98050.76
2019-04-04T01:30:59.865Z,98045.10
2019-04-04T01:34:05.035Z,98040.95
2019-04-04T01:37:10.271Z,98032.66
2019-04-04T01:40:15.587Z,98022.49
2019-04-04T01:43:20.700Z,98028.66
2019-04-04T01:46:25.868Z,98022.95
2019-04-04T01:49:31.079Z,98010.60
2019-04-04T01:52:36.297Z,98017.13
2019-04-04T01:55:43.513Z,98010.94
2019-04-04T01:58:48.423Z,97997.44
2019-04-04T02:01:53.647Z,97991.74
2019-04-04T02:04:58.841Z,97966.80
2019-04-04T02:08:04.004Z,97953.55
2019-04-04T02:11:09.180Z,97921.99
2019-04-04T02:14:14.338Z,97931.59
2019-04-04T02:17:20.086Z,97944.53
2019-04-04T02:20:30.150Z,97949.70
2019-04-04T02:23:35.271Z,97955.06
2019-04-04T02:26:40.455Z,97936.02
2019-04-04T02:29:45.662Z,97939.38
2019-04-04T02:32:50.894Z,97949.52
2019-04-04T02:35:56.014Z,97957.55
2019-04-04T02:39:10.341Z,97947.46
2019-04-04T02:42:15.508Z,97962.52
2019-04-04T02:45:20.745Z,97958.92
2019-04-04T02:48:25.951Z,97951.95
2019-04-04T02:51:31.066Z,97941.13
2019-04-04T02:54:36.339Z,97956.89
2019-04-04T02:57:42.588Z,97951.08
2019-04-04T03:00:48.002Z,97953.75
2019-04-04T03:03:53.145Z,97951.77
2019-04-04T03:06:58.796Z,97935.05
2019-04-04T03:10:04.700Z,97933.49
2019-04-04T03:13:09.887Z,97937.10
2019-04-04T03:16:15.057Z,97915.34
2019-04-04T03:19:20.209Z,97900.75
2019-04-04T03:22:27.552Z,97902.77
2019-04-04T03:25:32.166Z,97921.80
2019-04-04T03:28:37.321Z,97925.63
2019-04-04T03:31:42.595Z,97914.77
2019-04-04T03:34:50.375Z,97909.39
2019-04-04T03:37:54.960Z,97904.58
2019-04-04T03:41:00.208Z,97904.10
2019-04-04T03:44:05.357Z,97888.31
2019-04-04T03:47:11.415Z,97903.08
2019-04-04T03:50:16.655Z,97907.78
2019-04-04T03:53:22.767Z,97898.14
2019-04-04T03:56:27.930Z,97894.22
2019-04-04T03:59:33.198Z,97894.50
2019-04-04T04:02:38.358Z,97892.73
2019-04-04T04:05:43.635Z,97891.14
2019-04-04T04:08:48.857Z,97881.85
2019-04-04T04:11:55.045Z,97863.76
2019-04-04T04:15:02.195Z,97848.19
2019-04-04T04:18:07.435Z,97849.83
2019-04-04T04:21:12.601Z,97854.47
2019-04-04T04:24:17.767Z,97847.06
2019-04-04T04:27:22.922Z,97834.17
2019-04-04T04:30:28.123Z,97841.63
2019-04-04T04:33:33.235Z,97846.32
2019-04-04T04:36:38.345Z,97828.20
2019-04-04T04:39:43.580Z,97821.73
2019-04-04T04:42:49.942Z,97843.05
2019-04-04T04:45:55.083Z,97838.89
2019-04-04T04:49:00.616Z,97826.00
2019-04-04T04:52:07.049Z,97831.16
2019-04-04T04:55:12.325Z,97839.42
2019-04-04T04:58:17.423Z,97845.05
2019-04-04T05:01:22.614Z,97853.44
2019-04-04T05:04:28.206Z,97854.30
2019-04-04T05:07:34.078Z,97844.53
2019-04-04T05:10:39.198Z,97842.84
2019-04-04T05:13:44.337Z,97826.94
2019-04-04T05:16:49.494Z,97816.70
2019-04-04T05:19:54.718Z,97807.96
2019-04-04T05:22:59.882Z,97808.72
2019-04-04T05:26:05.119Z,97813.90
2019-04-04T05:29:13.173Z,97809.47
2019-04-04T05:32:17.140Z,97811.09
2019-04-04T05:35:22.279Z,97806.44
2019-04-04T05:38:27.520Z,97808.72
2019-04-04T05:41:33.648Z,97801.19
2019-04-04T05:44:41.230Z,97799.25
2019-04-04T05:47:45.753Z,97804.03
2019-04-04T05:50:51.020Z,97800.02
2019-04-04T05:53:56.222Z,97796.57
2019-04-04T05:57:03.302Z,97802.58
2019-04-04T06:00:10.920Z,97803.54
2019-04-04T06:03:16.126Z,97799.35
2019-04-04T06:06:21.345Z,97794.28
2019-04-04T06:09:26.573Z,97797.17
2019-04-04T06:12:31.749Z,97784.16
2019-04-04T06:15:36.961Z,97779.73
2019-04-04T06:18:42.995Z,97766.66
2019-04-04T06:21:50.017Z,97757.47
2019-04-04T06:24:59.094Z,97764.85
2019-04-04T06:28:02.808Z,97767.09
2019-04-04T06:31:08.032Z,97766.56
2019-04-04T06:34:13.185Z,97767.63
2019-04-04T06:37:20.024Z,97758.98
2019-04-04T06:40:25.272Z,97756.59
2019-04-04T06:43:30.450Z,97752.46
2019-04-04T06:46:35.631Z,97748.59
2019-04-04T06:49:41.031Z,97744.78
2019-04-04T06:52:46.211Z,97737.02
2019-04-04T06:55:51.389Z,97737.78
2019-04-04T06:58:56.509Z,97725.69
2019-04-04T07:02:01.691Z,97722.87
2019-04-04T07:05:10.615Z,97719.00
2019-04-04T07:08:15.922Z,97724.48
2019-04-04T07:11:21.830Z,97728.55
2019-04-04T07:14:29.989Z,97731.86
2019-04-04T07:17:34.158Z,97730.20
2019-04-04T07:20:39.302Z,97717.80
2019-04-04T07:23:44.414Z,97719.59
2019-04-04T07:26:49.533Z,97720.33
2019-04-04T07:29:56.602Z,97729.89
2019-04-04T07:33:01.622Z,97717.26
2019-04-04T07:36:06.831Z,97709.41
2019-04-04T07:39:12.463Z,97716.81
2019-04-04T07:42:17.944Z,97720.97
2019-04-04T07:45:25.979Z,97715.78
2019-04-04T07:48:30.397Z,97725.84
2019-04-04T07:51:35.627Z,97730.44
2019-04-04T07:54:41.018Z,97737.17
2019-04-04T07:57:46.216Z,97753.51
2019-04-04T08:00:51.421Z,97762.98
2019-04-04T08:03:56.587Z,97773.30
2019-04-04T08:07:01.786Z,97774.36
2019-04-04T08:10:19.850Z,97765.44
2019-04-04T08:13:15.345Z,97762.48
2019-04-04T08:16:20.555Z,97775.13
2019-04-04T08:19:25.783Z,97765.07
2019-04-04T08:22:31.128Z,97751.36
2019-04-04T08:25:36.326Z,97734.71
2019-04-04T08:28:41.668Z,97741.46
2019-04-04T08:31:46.901Z,97743.69
2019-04-04T08:34:52.107Z,97743.69
2019-04-04T08:37:58.385Z,97745.87
2019-04-04T08:41:03.579Z,97747.62
2019-04-04T08:44:08.718Z,97744.31
2019-04-04T08:47:13.954Z,97732.09
2019-04-04T08:50:19.199Z,97732.52
2019-04-04T08:53:24.516Z,97719.72
2019-04-04T08:56:29.733Z,97719.55
2019-04-04T08:59:34.997Z,97723.88
2019-04-04T09:02:40.281Z,97734.08
2019-04-04T09:05:45.454Z,97751.28
2019-04-04T09:08:50.651Z,97752.92
2019-04-04T09:11:55.815Z,97767.55
2019-04-04T09:15:00.977Z,97767.83
2019-04-04T09:18:06.269Z,97779.55
2019-04-04T09:21:11.428Z,97780.47
2019-04-04T09:24:16.599Z,97772.92
2019-04-04T09:27:21.904Z,97773.42
2019-04-04T09:30:27.263Z,97747.18
2019-04-04T09:33:32.473Z,97775.72
2019-04-04T09:36:37.707Z,97772.57
2019-04-04T09:39:43.024Z,97757.65
2019-04-04T09:42:49.350Z,97757.95
2019-04-04T09:45:54.511Z,97739.67
2019-04-04T09:48:59.778Z,97738.55
2019-04-04T09:52:05.155Z,97733.95
2019-04-04T09:55:11.527Z,97728.31
2019-04-04T09:58:16.657Z,97728.44
2019-04-04T10:01:21.924Z,97733.73
2019-04-04T10:04:27.148Z,97729.81
2019-04-04T10:07:32.487Z,97715.30
2019-04-04T10:10:37.711Z,97709.09
2019-04-04T10:13:42.931Z,97732.09
2019-04-04T10:16:48.141Z,97721.41
2019-04-04T10:19:53.318Z,97718.64
2019-04-04T10:22:58.604Z,97744.91
2019-04-04T10:26:03.878Z,97751.84
2019-04-04T10:29:09.221Z,97734.64
2019-04-04T10:32:14.428Z,97738.53
2019-04-04T10:35:19.609Z,97744.92
2019-04-04T10:38:24.852Z,97741.85
2019-04-04T10:41:30.215Z,97725.11
2019-04-04T10:44:37.226Z,97727.13
2019-04-04T10:47:42.595Z,97734.53
2019-04-04T10:50:47.946Z,97743.13
2019-04-04T10:53:53.202Z,97762.09
2019-04-04T10:56:58.509Z,97757.72
2019-04-04T11:00:05.184Z,97757.52
2019-04-04T11:03:11.114Z,97770.64
2019-04-04T11:06:16.375Z,97776.25
2019-04-04T11:09:21.618Z,97775.28
2019-04-04T11:12:26.869Z,97771.56
2019-04-04T11:15:32.103Z,97766.28
2019-04-04T11:18:37.343Z,97765.09
2019-04-04T11:21:42.644Z,97763.87
2019-04-04T11:24:47.821Z,97763.22
2019-04-04T11:27:53.097Z,97767.63
2019-04-04T11:30:58.330Z,97769.42
2019-04-04T11:34:03.533Z,97766.07
2019-04-04T11:37:08.803Z,97771.77
2019-04-04T11:40:14.183Z,97757.15
2019-04-04T11:43:19.527Z,97741.27
2019-04-04T11:46:24.701Z,97739.94
2019-04-04T11:49:30.004Z,97729.37
2019-04-04T11:52:35.303Z,97728.27
2019-04-04T11:55:40.542Z,97746.02
2019-04-04T11:58:45.823Z,97747.48
2019-04-04T12:01:51.450Z,97764.28
2019-04-04T12:04:57.957Z,97764.01
2019-04-04T12:08:03.348Z,97763.68
2019-04-04T12:11:08.568Z,97756.61
2019-04-04T12:14:13.739Z,97762.09
2019-04-04T12:17:19.033Z,97764.70
2019-04-04T12:20:24.280Z,97771.59
2019-04-04T12:23:29.533Z,97782.77
2019-04-04T12:26:34.763Z,97786.35
2019-04-04T12:29:39.997Z,97788.73
2019-04-04T12:32:45.345Z,97787.89
2019-04-04T12:35:52.444Z,97795.55
2019-04-04T12:38:57.554Z,97808.86
2019-04-04T12:42:02.775Z,97806.13
2019-04-04T12:45:08.349Z,97801.86
2019-04-04T12:48:13.754Z,97805.56
2019-04-04T12:51:24.697Z,97785.59
2019-04-04T13:20:46.161Z,97798.58
2019-04-04T13:23:51.318Z,97820.17
2019-04-04T13:26:58.233Z,97839.54
2019-04-04T13:30:03.627Z,97849.77
2019-04-04T13:33:08.802Z,97843.01
2019-04-04T13:36:14.029Z,97851.34
2019-04-04T13:39:19.476Z,97839.99
2019-04-04T13:42:24.805Z,97843.80
2019-04-04T13:45:30.105Z,97857.45
2019-04-04T13:48:36.394Z,97853.68
2019-04-04T13:51:41.791Z,97842.52
2019-04-04T13:54:47.127Z,97849.08
2019-04-04T13:57:52.348Z,97858.98
2019-04-04T14:00:57.692Z,97867.20
2019-04-04T14:04:03.977Z,97859.00
2019-04-04T14:07:09.377Z,97873.23
2019-04-04T14:10:17.377Z,97866.59
2019-04-04T14:13:22.246Z,97892.16
2019-04-04T14:16:27.400Z,97907.61
2019-04-04T14:19:32.573Z,97925.83
2019-04-04T14:22:37.830Z,97936.58
2019-04-04T14:25:43.291Z,97937.05
2019-04-04T14:28:48.523Z,97944.70
2019-04-04T14:31:53.841Z,97936.03
2019-04-04T14:34:59.199Z,97933.52
2019-04-04T14:38:04.617Z,97928.79
2019-04-04T14:41:11.500Z,97927.53
2019-04-04T14:44:17.081Z,97914.88
2019-04-04T14:47:22.344Z,97905.94
2019-04-04T14:50:28.209Z,97929.30
2019-04-04T14:53:33.586Z,97931.12
2019-04-04T14:56:39.876Z,97929.89
2019-04-04T14:59:45.224Z,97932.05
2019-04-04T15:02:50.394Z,97953.69
2019-04-04T15:05:55.639Z,97961.04
2019-04-04T15:09:00.883Z,97963.25
2019-04-04T15:12:07.647Z,97970.32
2019-04-04T15:15:13.464Z,97964.02
2019-04-04T15:18:18.649Z,97976.28
2019-04-04T15:21:23.965Z,97994.66
2019-04-04T15:24:29.223Z,97999.89
2019-04-04T15:27:35.475Z,97998.20
2019-04-04T15:30:40.741Z,98002.39
2019-04-04T15:33:46.002Z,98014.33
2019-04-04T15:36:51.280Z,98013.81
2019-04-04T15:39:56.462Z,98018.79
2019-04-04T15:43:01.706Z,98011.91
2019-04-04T15:46:07.033Z,98017.31
2019-04-04T15:49:12.434Z,98020.55
2019-04-04T15:52:17.618Z,98008.82
2019-04-04T15:55:22.852Z,98009.98
2019-04-04T15:58:28.153Z,98027.84
2019-04-04T16:01:33.434Z,98025.59
2019-04-04T16:04:38.600Z,98039.48
2019-04-04T16:07:43.775Z,98051.50
2019-04-04T16:10:49.045Z,98065.81
2019-04-04T16:13:54.293Z,98056.33
2019-04-04T16:17:00.133Z,98051.38
2019-04-04T16:20:05.916Z,98056.70
2019-04-04T16:23:11.204Z,98051.54
2019-04-04T16:26:17.530Z,98044.86
2019-04-04T16:29:22.726Z,98059.31
2019-04-04T16:32:27.893Z,98069.71
2019-04-04T16:35:33.326Z,98067.19
2019-04-04T16:38:38.636Z,98051.80
2019-04-04T16:41:43.830Z,98050.00
2019-04-04T16:44:49.368Z,98060.17
2019-04-04T16:47:54.527Z,98047.06
2019-04-04T16:50:59.655Z,98049.13
2019-04-04T16:54:05.142Z,98057.25
2019-04-04T16:57:10.438Z,98056.17
2019-04-04T17:00:16.807Z,98060.69
2019-04-04T17:03:22.239Z,98077.59
2019-04-04T17:06:27.526Z,98078.19
2019-04-04T17:09:33.810Z,98061.08
2019-04-04T17:12:38.905Z,98077.27
2019-04-04T17:15:44.371Z,98084.54
2019-04-04T17:18:49.564Z,98084.00
2019-04-04T17:21:54.773Z,98085.58
2019-04-04T17:24:59.942Z,98086.59
2019-04-04T17:28:05.510Z,98073.52
2019-04-04T17:31:11.221Z,98080.23
2019-04-04T17:34:17.949Z,98092.16
2019-04-04T17:37:23.164Z,98090.48
2019-04-04T17:40:28.504Z,98095.73
2019-04-04T17:43:33.767Z,98094.60
2019-04-04T17:46:39.066Z,98097.00
2019-04-04T17:49:44.425Z,98090.37
2019-04-04T17:52:49.708Z,98112.20
2019-04-04T17:55:56.071Z,98121.58
2019-04-04T17:59:01.421Z,98116.63
2019-04-04T18:02:06.779Z,98117.13
2019-04-04T18:05:12.058Z,98135.53
2019-04-04T18:08:17.293Z,98163.19
2019-04-04T18:11:22.656Z,98163.84
2019-04-04T18:14:27.937Z,98169.54
2019-04-04T18:17:33.408Z,98174.54
2019-04-04T18:20:38.635Z,98179.25
2019-04-04T18:23:43.907Z,98181.80
2019-04-04T18:26:49.254Z,98185.73
2019-04-04T18:29:54.514Z,98193.94
2019-04-04T18:33:00.085Z,98196.48
2019-04-04T18:36:05.762Z,98198.00
2019-04-04T18:39:11.804Z,98201.93
2019-04-04T18:42:17.315Z,98197.08
2019-04-04T18:45:22.865Z,98203.00
2019-04-04T18:48:28.103Z,98208.89
2019-04-04T18:51:33.468Z,98202.73
2019-04-04T18:54:38.683Z,98212.73
2019-04-04T18:57:43.998Z,98218.03
2019-04-04T19:00:49.315Z,98230.66
2019-04-04T19:03:54.633Z,98237.33
2019-04-04T19:06:59.843Z,98244.21
2019-04-04T19:10:06.359Z,98240.23
2019-04-04T19:13:11.729Z,98239.83
2019-04-04T19:16:17.121Z,98227.92
2019-04-04T19:19:22.435Z,98221.47
2019-04-04T19:22:27.699Z,98247.05
2019-04-04T19:25:32.974Z,98251.41
2019-04-04T19:28:38.254Z,98255.66
2019-04-04T19:31:43.614Z,98248.99
2019-04-04T19:34:48.732Z,98255.09
2019-04-04T19:37:59.958Z,98260.84
2019-04-04T19:41:00.929Z,98259.50
2019-04-04T19:44:06.574Z,98271.72
2019-04-04T19:47:11.689Z,98280.63
2019-04-04T19:50:16.910Z,98268.13
2019-04-04T19:53:22.188Z,98246.65
2019-04-04T19:56:28.517Z,98262.84
2019-04-04T19:59:33.713Z,98273.48
2019-04-04T20:02:38.872Z,98268.77
2019-04-04T20:05:44.609Z,98268.13
2019-04-04T20:08:53.426Z,98273.30
2019-04-04T20:11:56.874Z,98275.66
2019-04-04T20:15:03.171Z,98294.77
2019-04-04T20:18:08.906Z,98298.21
2019-04-04T20:21:14.241Z,98306.53
2019-04-04T20:24:19.698Z,98330.16
2019-04-04T20:27:24.898Z,98318.64
2019-04-04T20:30:37.455Z,98309.59
2019-04-04T20:33:42.775Z,98329.54
2019-04-04T20:36:47.957Z,98314.24
2019-04-04T20:39:53.337Z,98316.78
2019-04-04T20:42:58.625Z,98313.59
2019-04-04T20:46:05.004Z,98305.35
2019-04-04T20:49:10.346Z,98305.35
2019-04-04T20:52:16.803Z,98291.30
2019-04-04T20:55:22.013Z,98290.55
2019-04-04T20:58:27.342Z,98300.90
2019-04-04T21:01:32.658Z,98305.06
2019-04-04T21:04:37.856Z,98297.89
2019-04-04T21:07:43.122Z,98308.09
2019-04-04T21:10:48.411Z,98314.98
2019-04-04T21:13:56.446Z,98312.38
2019-04-04T21:17:00.812Z,98308.00
2019-04-04T21:20:07.806Z,98310.99
2019-04-04T21:23:13.087Z,98315.10
2019-04-04T21:26:18.282Z,98314.58
2019-04-04T21:29:23.502Z,98316.32
2019-04-04T21:32:28.836Z,98323.61
2019-04-04T21:35:34.036Z,98325.43
2019-04-04T21:38:39.322Z,98326.91
2019-04-04T21:41:44.651Z,98339.09
2019-04-04T21:44:49.834Z,98337.93
2019-04-04T21:47:54.979Z,98338.81
2019-04-04T21:51:00.118Z,98340.87
2019-04-04T21:54:05.316Z,98345.19
2019-04-04T21:57:10.557Z,98347.56
2019-04-04T22:00:16.021Z,98341.02
2019-04-04T22:03:22.813Z,98341.45
2019-04-04T22:06:27.898Z,98337.40
2019-04-04T22:09:33.871Z,98339.27
2019-04-04T22:12:39.280Z,98342.66
2019-04-04T22:15:45.084Z,98344.31
2019-04-04T22:18:50.265Z,98353.66
2019-04-04T22:21:55.700Z,98365.28
2019-04-04T22:25:00.883Z,98379.42
2019-04-04T22:28:06.056Z,98386.92
2019-04-04T22:31:11.334Z,98384.75
2019-04-04T22:34:16.619Z,98393.59
2019-04-04T22:37:21.758Z,98395.77
2019-04-04T22:40:26.907Z,98387.20
2019-04-04T22:43:32.013Z,98389.67
2019-04-04T22:46:37.319Z,98384.75
2019-04-04T22:49:42.741Z,98384.61
2019-04-04T22:52:47.839Z,98381.26
2019-04-04T22:55:53.046Z,98384.45
2019-04-04T22:58:58.228Z,98391.14
2019-04-04T23:02:03.546Z,98398.16
2019-04-04T23:05:08.918Z,98397.25
2019-04-04T23:08:15.078Z,98405.50
2019-04-04T23:11:20.421Z,98403.92
2019-04-04T23:14:25.761Z,98409.44
2019-04-04T23:17:30.921Z,98407.36
2019-04-04T23:20:36.059Z,98416.86
2019-04-04T23:23:41.206Z,98423.58
2019-04-04T23:26:46.384Z,98424.55
2019-04-04T23:29:51.599Z,98425.30
2019-04-04T23:32:56.928Z,98430.84
2019-04-04T23:36:02.106Z,98432.66
2019-04-04T23:39:08.137Z,98422.89
2019-04-04T23:42:13.499Z,98422.37
2019-04-04T23:45:18.642Z,98424.92
2019-04-04T23:48:23.943Z,98424.16
2019-04-04T23:51:29.061Z,98419.86
2019-04-04T23:54:34.170Z,98413.16
2019-04-04T23:57:39.402Z,98415.99
